sensor_id;sensor_type;location;lat;lon;timestamp;P1;P2;P0
61804;PMS7003;47725;47.912;7.356;2022-10-19T00:01:07;0.88;0.88;
61804;PMS7003;47725;47.912;7.356;2022-10-19T00:05:00;0.88;0.88;
61804;PMS7003;47725;47.912;7.356;2022-10-19T00:09:02;0.88;0.88;
61804;PMS7003;47725;47.912;7.356;2022-10-19T00:13:00;0.87;0.87;
61804;PMS7003;47725;47.912;7.356;2022-10-19T00:17:00;0.87;0.87;
61804;PMS7003;47725;47.912;7.356;2022-10-19T00:21:01;1.75;1.75;
61804;PMS7003;47725;47.912;7.356;2022-10-19T00:25:00;1.75;1.75;
61804;PMS7003;47725;47.912;7.356;2022-10-19T00:29:00;1.75;1.75;
61804;PMS7003;47725;47.912;7.356;2022-10-19T00:33:00;1.74;1.74;
61804;PMS7003;47725;47.912;7.356;2022-10-19T00:37:00;1.74;1.74;
61804;PMS7003;47725;47.912;7.356;2022-10-19T00:41:01;0.87;0.87;
61804;PMS7003;47725;47.912;7.356;2022-10-19T00:45:03;0.87;0.87;
61804;PMS7003;47725;47.912;7.356;2022-10-19T00:49:05;0.87;0.87;
61804;PMS7003;47725;47.912;7.356;2022-10-19T00:53:00;1.74;0.87;
61804;PMS7003;47725;47.912;7.356;2022-10-19T00:57:00;1.74;0.87;
61804;PMS7003;47725;47.912;7.356;2022-10-19T01:01:01;0.87;0.87;
61804;PMS7003;47725;47.912;7.356;2022-10-19T01:05:00;0.87;0.87;
61804;PMS7003;47725;47.912;7.356;2022-10-19T01:09:00;0.87;0.87;
61804;PMS7003;47725;47.912;7.356;2022-10-19T01:13:05;1.74;1.74;
61804;PMS7003;47725;47.912;7.356;2022-10-19T01:17:17;1.74;1.74;
61804;PMS7003;47725;47.912;7.356;2022-10-19T01:21:02;2.61;1.74;
61804;PMS7003;47725;47.912;7.356;2022-10-19T01:29:16;2.61;1.74;
61804;PMS7003;47725;47.912;7.356;2022-10-19T01:45:10;3.42;3.42;
61804;PMS7003;47725;47.912;7.356;2022-10-19T01:49:01;3.42;3.42;
61804;PMS7003;47725;47.912;7.356;2022-10-19T01:53:00;4.30;2.58;
61804;PMS7003;47725;47.912;7.356;2022-10-19T01:57:00;4.30;2.58;
61804;PMS7003;47725;47.912;7.356;2022-10-19T02:01:01;1.72;1.72;
61804;PMS7003;47725;47.912;7.356;2022-10-19T02:05:00;1.72;1.72;
61804;PMS7003;47725;47.912;7.356;2022-10-19T02:09:00;1.72;1.72;
61804;PMS7003;47725;47.912;7.356;2022-10-19T02:13:00;2.58;2.58;
61804;PMS7003;47725;47.912;7.356;2022-10-19T02:17:02;2.58;2.58;
61804;PMS7003;47725;47.912;7.356;2022-10-19T02:21:04;2.58;2.58;
61804;PMS7003;47725;47.912;7.356;2022-10-19T02:25:00;2.58;2.58;
61804;PMS7003;47725;47.912;7.356;2022-10-19T02:29:00;2.58;2.58;
61804;PMS7003;47725;47.912;7.356;2022-10-19T02:33:00;2.55;2.55;
61804;PMS7003;47725;47.912;7.356;2022-10-19T02:37:00;2.55;2.55;
61804;PMS7003;47725;47.912;7.356;2022-10-19T02:41:10;1.68;1.68;
61804;PMS7003;47725;47.912;7.356;2022-10-19T02:45:14;1.68;1.68;
61804;PMS7003;47725;47.912;7.356;2022-10-19T02:49:00;1.68;1.68;
61804;PMS7003;47725;47.912;7.356;2022-10-19T02:53:00;0.83;0.83;
61804;PMS7003;47725;47.912;7.356;2022-10-19T02:57:01;0.83;0.83;
61804;PMS7003;47725;47.912;7.356;2022-10-19T03:01:00;4.97;2.49;
61804;PMS7003;47725;47.912;7.356;2022-10-19T03:05:00;4.97;2.49;
61804;PMS7003;47725;47.912;7.356;2022-10-19T03:09:00;4.97;2.49;
61804;PMS7003;47725;47.912;7.356;2022-10-19T03:13:00;2.46;2.46;
61804;PMS7003;47725;47.912;7.356;2022-10-19T03:17:00;2.46;2.46;
61804;PMS7003;47725;47.912;7.356;2022-10-19T03:21:04;6.46;3.23;
61804;PMS7003;47725;47.912;7.356;2022-10-19T03:25:00;6.46;3.23;
61804;PMS7003;47725;47.912;7.356;2022-10-19T03:29:00;6.46;3.23;
61804;PMS7003;47725;47.912;7.356;2022-10-19T03:33:00;4.01;3.21;
61804;PMS7003;47725;47.912;7.356;2022-10-19T03:37:00;4.01;3.21;
61804;PMS7003;47725;47.912;7.356;2022-10-19T03:41:04;6.37;4.78;
61804;PMS7003;47725;47.912;7.356;2022-10-19T03:45:00;6.37;4.78;
61804;PMS7003;47725;47.912;7.356;2022-10-19T03:49:00;6.37;4.78;
61804;PMS7003;47725;47.912;7.356;2022-10-19T03:53:00;5.53;3.95;
61804;PMS7003;47725;47.912;7.356;2022-10-19T03:57:00;5.53;3.95;
61804;PMS7003;47725;47.912;7.356;2022-10-19T04:01:00;4.72;3.93;
61804;PMS7003;47725;47.912;7.356;2022-10-19T04:05:00;4.72;3.93;
61804;PMS7003;47725;47.912;7.356;2022-10-19T04:09:00;4.72;3.93;
61804;PMS7003;47725;47.912;7.356;2022-10-19T04:13:00;3.12;3.12;
61804;PMS7003;47725;47.912;7.356;2022-10-19T04:17:00;3.12;3.12;
61804;PMS7003;47725;47.912;7.356;2022-10-19T04:21:01;3.12;3.12;
61804;PMS7003;47725;47.912;7.356;2022-10-19T04:25:00;3.12;3.12;
61804;PMS7003;47725;47.912;7.356;2022-10-19T04:29:00;3.12;3.12;
61804;PMS7003;47725;47.912;7.356;2022-10-19T04:33:00;7.76;4.65;
61804;PMS7003;47725;47.912;7.356;2022-10-19T04:37:00;7.76;4.65;
61804;PMS7003;47725;47.912;7.356;2022-10-19T04:41:04;6.21;4.66;
61804;PMS7003;47725;47.912;7.356;2022-10-19T04:45:00;6.21;4.66;
61804;PMS7003;47725;47.912;7.356;2022-10-19T04:49:00;6.21;4.66;
61804;PMS7003;47725;47.912;7.356;2022-10-19T04:53:00;4.67;3.89;
61804;PMS7003;47725;47.912;7.356;2022-10-19T04:57:00;4.67;3.89;
61804;PMS7003;47725;47.912;7.356;2022-10-19T05:05:00;4.68;3.12;
61804;PMS7003;47725;47.912;7.356;2022-10-19T05:09:00;4.68;3.12;
61804;PMS7003;47725;47.912;7.356;2022-10-19T05:13:00;4.63;3.09;
61804;PMS7003;47725;47.912;7.356;2022-10-19T05:17:01;4.63;3.09;
61804;PMS7003;47725;47.912;7.356;2022-10-19T05:21:01;5.40;4.63;
61804;PMS7003;47725;47.912;7.356;2022-10-19T05:25:00;5.40;4.63;
61804;PMS7003;47725;47.912;7.356;2022-10-19T05:29:00;5.40;4.63;
61804;PMS7003;47725;47.912;7.356;2022-10-19T05:33:00;3.86;3.86;
61804;PMS7003;47725;47.912;7.356;2022-10-19T05:37:00;3.86;3.86;
61804;PMS7003;47725;47.912;7.356;2022-10-19T05:41:00;6.95;3.09;
61804;PMS7003;47725;47.912;7.356;2022-10-19T05:45:00;6.95;3.09;
61804;PMS7003;47725;47.912;7.356;2022-10-19T05:49:00;6.95;3.09;
61804;PMS7003;47725;47.912;7.356;2022-10-19T05:53:00;9.99;5.38;
61804;PMS7003;47725;47.912;7.356;2022-10-19T05:57:00;9.99;5.38;
61804;PMS7003;47725;47.912;7.356;2022-10-19T06:01:01;6.98;5.43;
61804;PMS7003;47725;47.912;7.356;2022-10-19T06:05:00;6.98;5.43;
61804;PMS7003;47725;47.912;7.356;2022-10-19T06:09:00;6.98;5.43;
61804;PMS7003;47725;47.912;7.356;2022-10-19T06:13:00;5.37;3.84;
61804;PMS7003;47725;47.912;7.356;2022-10-19T06:17:00;5.37;3.84;
61804;PMS7003;47725;47.912;7.356;2022-10-19T06:21:02;5.43;5.43;
61804;PMS7003;47725;47.912;7.356;2022-10-19T06:25:00;5.43;5.43;
61804;PMS7003;47725;47.912;7.356;2022-10-19T06:29:00;5.43;5.43;
61804;PMS7003;47725;47.912;7.356;2022-10-19T06:33:00;6.17;3.86;
61804;PMS7003;47725;47.912;7.356;2022-10-19T06:37:00;6.17;3.86;
61804;PMS7003;47725;47.912;7.356;2022-10-19T06:41:00;3.06;3.06;
61804;PMS7003;47725;47.912;7.356;2022-10-19T06:45:00;3.06;3.06;
61804;PMS7003;47725;47.912;7.356;2022-10-19T06:49:00;3.06;3.06;
61804;PMS7003;47725;47.912;7.356;2022-10-19T06:53:00;6.90;5.37;
61804;PMS7003;47725;47.912;7.356;2022-10-19T06:57:00;6.90;5.37;
61804;PMS7003;47725;47.912;7.356;2022-10-19T07:01:00;4.61;4.61;
61804;PMS7003;47725;47.912;7.356;2022-10-19T07:05:00;4.61;4.61;
61804;PMS7003;47725;47.912;7.356;2022-10-19T07:09:00;4.61;4.61;
61804;PMS7003;47725;47.912;7.356;2022-10-19T07:13:00;6.17;4.62;
61804;PMS7003;47725;47.912;7.356;2022-10-19T07:17:00;6.17;4.62;
61804;PMS7003;47725;47.912;7.356;2022-10-19T07:21:01;3.83;2.30;
61804;PMS7003;47725;47.912;7.356;2022-10-19T07:25:00;3.83;2.30;
61804;PMS7003;47725;47.912;7.356;2022-10-19T07:29:00;3.83;2.30;
61804;PMS7003;47725;47.912;7.356;2022-10-19T07:33:00;6.92;3.84;
61804;PMS7003;47725;47.912;7.356;2022-10-19T07:37:00;6.92;3.84;
61804;PMS7003;47725;47.912;7.356;2022-10-19T07:41:04;4.58;2.29;
61804;PMS7003;47725;47.912;7.356;2022-10-19T07:45:00;4.58;2.29;
61804;PMS7003;47725;47.912;7.356;2022-10-19T07:49:00;4.58;2.29;
61804;PMS7003;47725;47.912;7.356;2022-10-19T07:53:00;3.05;1.52;
61804;PMS7003;47725;47.912;7.356;2022-10-19T07:57:00;3.05;1.52;
61804;PMS7003;47725;47.912;7.356;2022-10-19T08:01:00;4.58;3.82;
61804;PMS7003;47725;47.912;7.356;2022-10-19T08:05:00;4.58;3.82;
61804;PMS7003;47725;47.912;7.356;2022-10-19T08:09:00;4.58;3.82;
61804;PMS7003;47725;47.912;7.356;2022-10-19T08:13:00;4.58;4.58;
61804;PMS7003;47725;47.912;7.356;2022-10-19T08:17:00;4.58;4.58;
61804;PMS7003;47725;47.912;7.356;2022-10-19T08:21:00;1.53;1.53;
61804;PMS7003;47725;47.912;7.356;2022-10-19T08:25:00;1.53;1.53;
61804;PMS7003;47725;47.912;7.356;2022-10-19T08:29:01;1.53;1.53;
61804;PMS7003;47725;47.912;7.356;2022-10-19T08:33:00;3.11;3.11;
61804;PMS7003;47725;47.912;7.356;2022-10-19T08:37:01;3.11;3.11;
61804;PMS7003;47725;47.912;7.356;2022-10-19T08:41:08;1.54;0.77;
61804;PMS7003;47725;47.912;7.356;2022-10-19T08:49:00;1.54;0.77;
61804;PMS7003;47725;47.912;7.356;2022-10-19T08:53:04;2.33;1.55;
61804;PMS7003;47725;47.912;7.356;2022-10-19T08:57:06;2.33;1.55;
61804;PMS7003;47725;47.912;7.356;2022-10-19T09:01:09;0.77;0.77;
61804;PMS7003;47725;47.912;7.356;2022-10-19T09:05:02;0.77;0.77;
61804;PMS7003;47725;47.912;7.356;2022-10-19T09:09:00;0.77;0.77;
61804;PMS7003;47725;47.912;7.356;2022-10-19T09:13:05;1.54;1.54;
61804;PMS7003;47725;47.912;7.356;2022-10-19T09:17:02;1.54;1.54;
61804;PMS7003;47725;47.912;7.356;2022-10-19T09:21:03;1.55;1.55;
61804;PMS7003;47725;47.912;7.356;2022-10-19T09:25:04;1.55;1.55;
61804;PMS7003;47725;47.912;7.356;2022-10-19T09:29:08;1.55;1.55;
61804;PMS7003;47725;47.912;7.356;2022-10-19T09:33:00;1.59;1.59;
61804;PMS7003;47725;47.912;7.356;2022-10-19T09:37:00;1.59;1.59;
61804;PMS7003;47725;47.912;7.356;2022-10-19T09:41:19;5.53;2.37;
61804;PMS7003;47725;47.912;7.356;2022-10-19T09:45:01;5.53;2.37;
61804;PMS7003;47725;47.912;7.356;2022-10-19T09:49:00;5.53;2.37;
61804;PMS7003;47725;47.912;7.356;2022-10-19T09:53:03;3.89;2.33;
61804;PMS7003;47725;47.912;7.356;2022-10-19T09:57:00;3.89;2.33;
61804;PMS7003;47725;47.912;7.356;2022-10-19T10:01:00;3.10;3.10;
61804;PMS7003;47725;47.912;7.356;2022-10-19T10:05:08;3.10;3.10;
61804;PMS7003;47725;47.912;7.356;2022-10-19T10:09:00;3.10;3.10;
61804;PMS7003;47725;47.912;7.356;2022-10-19T10:13:00;3.89;2.33;
61804;PMS7003;47725;47.912;7.356;2022-10-19T10:17:01;3.89;2.33;
61804;PMS7003;47725;47.912;7.356;2022-10-19T10:21:02;3.89;2.33;
61804;PMS7003;47725;47.912;7.356;2022-10-19T10:25:00;3.89;2.33;
61804;PMS7003;47725;47.912;7.356;2022-10-19T10:29:00;3.89;2.33;
61804;PMS7003;47725;47.912;7.356;2022-10-19T10:33:00;3.16;3.16;
61804;PMS7003;47725;47.912;7.356;2022-10-19T10:37:00;3.16;3.16;
61804;PMS7003;47725;47.912;7.356;2022-10-19T10:41:04;2.35;2.35;
61804;PMS7003;47725;47.912;7.356;2022-10-19T10:45:00;2.35;2.35;
61804;PMS7003;47725;47.912;7.356;2022-10-19T10:49:01;2.35;2.35;
61804;PMS7003;47725;47.912;7.356;2022-10-19T10:53:01;5.50;3.93;
61804;PMS7003;47725;47.912;7.356;2022-10-19T11:01:00;5.52;3.94;
61804;PMS7003;47725;47.912;7.356;2022-10-19T11:05:09;5.52;3.94;
61804;PMS7003;47725;47.912;7.356;2022-10-19T11:09:11;5.52;3.94;
61804;PMS7003;47725;47.912;7.356;2022-10-19T11:13:12;6.30;6.30;
61804;PMS7003;47725;47.912;7.356;2022-10-19T11:17:03;6.30;6.30;
61804;PMS7003;47725;47.912;7.356;2022-10-19T11:29:04;3.16;3.16;
61804;PMS7003;47725;47.912;7.356;2022-10-19T11:33:05;7.93;6.34;
61804;PMS7003;47725;47.912;7.356;2022-10-19T11:45:05;4.75;3.17;
61804;PMS7003;47725;47.912;7.356;2022-10-19T11:49:05;4.75;3.17;
61804;PMS7003;47725;47.912;7.356;2022-10-19T11:53:03;5.53;3.16;
61804;PMS7003;47725;47.912;7.356;2022-10-19T11:57:06;5.53;3.16;
61804;PMS7003;47725;47.912;7.356;2022-10-19T12:01:07;3.95;3.95;
61804;PMS7003;47725;47.912;7.356;2022-10-19T12:05:00;3.95;3.95;
61804;PMS7003;47725;47.912;7.356;2022-10-19T12:13:03;3.99;3.99;
61804;PMS7003;47725;47.912;7.356;2022-10-19T12:17:09;3.99;3.99;
61804;PMS7003;47725;47.912;7.356;2022-10-19T12:21:01;4.78;3.19;
61804;PMS7003;47725;47.912;7.356;2022-10-19T12:25:00;4.78;3.19;
61804;PMS7003;47725;47.912;7.356;2022-10-19T12:29:04;4.78;3.19;
61804;PMS7003;47725;47.912;7.356;2022-10-19T12:41:05;7.20;4.80;
61804;PMS7003;47725;47.912;7.356;2022-10-19T12:53:00;9.68;6.45;
61804;PMS7003;47725;47.912;7.356;2022-10-19T12:57:00;9.68;6.45;
61804;PMS7003;47725;47.912;7.356;2022-10-19T13:01:01;4.05;4.05;
61804;PMS7003;47725;47.912;7.356;2022-10-19T13:05:00;4.05;4.05;
61804;PMS7003;47725;47.912;7.356;2022-10-19T13:09:06;4.05;4.05;
61804;PMS7003;47725;47.912;7.356;2022-10-19T13:13:00;7.30;4.87;
61804;PMS7003;47725;47.912;7.356;2022-10-19T13:17:00;7.30;4.87;
61804;PMS7003;47725;47.912;7.356;2022-10-19T13:21:00;6.51;4.88;
61804;PMS7003;47725;47.912;7.356;2022-10-19T13:29:00;6.51;4.88;
61804;PMS7003;47725;47.912;7.356;2022-10-19T13:37:01;2.45;2.45;
61804;PMS7003;47725;47.912;7.356;2022-10-19T13:41:18;4.88;4.07;
61804;PMS7003;47725;47.912;7.356;2022-10-19T13:45:00;4.88;4.07;
61804;PMS7003;47725;47.912;7.356;2022-10-19T13:57:05;8.25;4.95;
61804;PMS7003;47725;47.912;7.356;2022-10-19T14:01:15;3.30;3.30;
61804;PMS7003;47725;47.912;7.356;2022-10-19T14:05:22;3.30;3.30;
61804;PMS7003;47725;47.912;7.356;2022-10-19T14:13:00;5.75;3.29;
61804;PMS7003;47725;47.912;7.356;2022-10-19T14:17:00;5.75;3.29;
61804;PMS7003;47725;47.912;7.356;2022-10-19T14:21:01;4.14;4.14;
61804;PMS7003;47725;47.912;7.356;2022-10-19T14:25:06;4.14;4.14;
61804;PMS7003;47725;47.912;7.356;2022-10-19T14:29:00;4.14;4.14;
61804;PMS7003;47725;47.912;7.356;2022-10-19T14:33:05;6.63;3.31;
61804;PMS7003;47725;47.912;7.356;2022-10-19T14:37:00;6.63;3.31;
61804;PMS7003;47725;47.912;7.356;2022-10-19T14:41:00;4.20;4.20;
61804;PMS7003;47725;47.912;7.356;2022-10-19T14:45:00;4.20;4.20;
61804;PMS7003;47725;47.912;7.356;2022-10-19T14:49:00;4.20;4.20;
61804;PMS7003;47725;47.912;7.356;2022-10-19T14:57:00;5.03;4.19;
61804;PMS7003;47725;47.912;7.356;2022-10-19T15:01:00;5.89;3.36;
61804;PMS7003;47725;47.912;7.356;2022-10-19T15:05:00;5.89;3.36;
61804;PMS7003;47725;47.912;7.356;2022-10-19T15:09:00;5.89;3.36;
61804;PMS7003;47725;47.912;7.356;2022-10-19T15:13:00;4.22;3.37;
61804;PMS7003;47725;47.912;7.356;2022-10-19T15:17:00;4.22;3.37;
61804;PMS7003;47725;47.912;7.356;2022-10-19T15:21:04;4.23;4.23;
61804;PMS7003;47725;47.912;7.356;2022-10-19T15:29:09;4.23;4.23;
61804;PMS7003;47725;47.912;7.356;2022-10-19T15:37:00;5.93;5.93;
61804;PMS7003;47725;47.912;7.356;2022-10-19T15:41:00;7.64;5.94;
61804;PMS7003;47725;47.912;7.356;2022-10-19T15:45:00;7.64;5.94;
61804;PMS7003;47725;47.912;7.356;2022-10-19T15:49:04;7.64;5.94;
61804;PMS7003;47725;47.912;7.356;2022-10-19T15:53:00;3.39;3.39;
61804;PMS7003;47725;47.912;7.356;2022-10-19T15:56:59;3.39;3.39;
61804;PMS7003;47725;47.912;7.356;2022-10-19T16:00:59;7.64;4.25;
61804;PMS7003;47725;47.912;7.356;2022-10-19T16:04:59;7.64;4.25;
61804;PMS7003;47725;47.912;7.356;2022-10-19T16:08:59;7.64;4.25;
61804;PMS7003;47725;47.912;7.356;2022-10-19T16:12:59;6.79;4.25;
61804;PMS7003;47725;47.912;7.356;2022-10-19T16:16:59;6.79;4.25;
61804;PMS7003;47725;47.912;7.356;2022-10-19T16:20:59;9.33;6.78;
61804;PMS7003;47725;47.912;7.356;2022-10-19T16:24:59;9.33;6.78;
61804;PMS7003;47725;47.912;7.356;2022-10-19T16:29:00;9.33;6.78;
61804;PMS7003;47725;47.912;7.356;2022-10-19T16:32:59;3.39;3.39;
61804;PMS7003;47725;47.912;7.356;2022-10-19T16:37:00;3.39;3.39;
61804;PMS7003;47725;47.912;7.356;2022-10-19T16:41:00;4.21;4.21;
61804;PMS7003;47725;47.912;7.356;2022-10-19T16:44:59;4.21;4.21;
61804;PMS7003;47725;47.912;7.356;2022-10-19T16:48:59;4.21;4.21;
61804;PMS7003;47725;47.912;7.356;2022-10-19T16:53:03;7.56;5.04;
61804;PMS7003;47725;47.912;7.356;2022-10-19T16:56:59;7.56;5.04;
61804;PMS7003;47725;47.912;7.356;2022-10-19T17:01:05;4.20;3.36;
61804;PMS7003;47725;47.912;7.356;2022-10-19T17:04:59;4.20;3.36;
61804;PMS7003;47725;47.912;7.356;2022-10-19T17:08:59;4.20;3.36;
61804;PMS7003;47725;47.912;7.356;2022-10-19T17:12:59;5.03;2.52;
61804;PMS7003;47725;47.912;7.356;2022-10-19T17:17:00;5.03;2.52;
61804;PMS7003;47725;47.912;7.356;2022-10-19T17:21:00;6.71;4.19;
61804;PMS7003;47725;47.912;7.356;2022-10-19T17:24:59;6.71;4.19;
61804;PMS7003;47725;47.912;7.356;2022-10-19T17:29:00;6.71;4.19;
61804;PMS7003;47725;47.912;7.356;2022-10-19T17:32:59;5.02;4.18;
61804;PMS7003;47725;47.912;7.356;2022-10-19T17:36:59;5.02;4.18;
61804;PMS7003;47725;47.912;7.356;2022-10-19T17:41:00;6.69;4.18;
61804;PMS7003;47725;47.912;7.356;2022-10-19T17:44:59;6.69;4.18;
61804;PMS7003;47725;47.912;7.356;2022-10-19T17:49:00;6.69;4.18;
61804;PMS7003;47725;47.912;7.356;2022-10-19T17:52:59;4.18;4.18;
61804;PMS7003;47725;47.912;7.356;2022-10-19T17:56:59;4.18;4.18;
61804;PMS7003;47725;47.912;7.356;2022-10-19T18:00:59;4.18;4.18;
61804;PMS7003;47725;47.912;7.356;2022-10-19T18:04:59;4.18;4.18;
61804;PMS7003;47725;47.912;7.356;2022-10-19T18:09:00;4.18;4.18;
61804;PMS7003;47725;47.912;7.356;2022-10-19T18:12:59;4.15;4.15;
61804;PMS7003;47725;47.912;7.356;2022-10-19T18:16:59;4.15;4.15;
61804;PMS7003;47725;47.912;7.356;2022-10-19T18:21:02;11.56;8.25;
61804;PMS7003;47725;47.912;7.356;2022-10-19T18:24:59;11.56;8.25;
61804;PMS7003;47725;47.912;7.356;2022-10-19T18:29:00;11.56;8.25;
61804;PMS7003;47725;47.912;7.356;2022-10-19T18:32:59;6.55;4.91;
61804;PMS7003;47725;47.912;7.356;2022-10-19T18:36:59;6.55;4.91;
61804;PMS7003;47725;47.912;7.356;2022-10-19T18:41:06;15.53;8.99;
61804;PMS7003;47725;47.912;7.356;2022-10-19T18:44:59;15.53;8.99;
61804;PMS7003;47725;47.912;7.356;2022-10-19T18:48:59;15.53;8.99;
61804;PMS7003;47725;47.912;7.356;2022-10-19T18:52:59;5.71;4.08;
61804;PMS7003;47725;47.912;7.356;2022-10-19T18:56:59;5.71;4.08;
61804;PMS7003;47725;47.912;7.356;2022-10-19T19:01:18;8.94;6.50;
61804;PMS7003;47725;47.912;7.356;2022-10-19T19:04:59;8.94;6.50;
61804;PMS7003;47725;47.912;7.356;2022-10-19T19:09:00;8.94;6.50;
61804;PMS7003;47725;47.912;7.356;2022-10-19T19:12:59;5.70;4.07;
61804;PMS7003;47725;47.912;7.356;2022-10-19T19:16:59;5.70;4.07;
61804;PMS7003;47725;47.912;7.356;2022-10-19T19:21:00;5.70;4.07;
61804;PMS7003;47725;47.912;7.356;2022-10-19T19:24:59;5.70;4.07;
61804;PMS7003;47725;47.912;7.356;2022-10-19T19:28:59;5.70;4.07;
61804;PMS7003;47725;47.912;7.356;2022-10-19T19:32:59;6.51;4.07;
61804;PMS7003;47725;47.912;7.356;2022-10-19T19:36:59;6.51;4.07;
61804;PMS7003;47725;47.912;7.356;2022-10-19T19:41:02;7.30;5.67;
61804;PMS7003;47725;47.912;7.356;2022-10-19T19:44:59;7.30;5.67;
61804;PMS7003;47725;47.912;7.356;2022-10-19T19:49:00;7.30;5.67;
61804;PMS7003;47725;47.912;7.356;2022-10-19T19:52:59;6.51;4.88;
61804;PMS7003;47725;47.912;7.356;2022-10-19T19:56:59;6.51;4.88;
61804;PMS7003;47725;47.912;7.356;2022-10-19T20:01:01;8.09;6.47;
61804;PMS7003;47725;47.912;7.356;2022-10-19T20:04:59;8.09;6.47;
61804;PMS7003;47725;47.912;7.356;2022-10-19T20:08:59;8.09;6.47;
61804;PMS7003;47725;47.912;7.356;2022-10-19T20:12:59;7.28;7.28;
61804;PMS7003;47725;47.912;7.356;2022-10-19T20:16:59;7.28;7.28;
61804;PMS7003;47725;47.912;7.356;2022-10-19T20:21:03;6.46;4.85;
61804;PMS7003;47725;47.912;7.356;2022-10-19T20:24:59;6.46;4.85;
61804;PMS7003;47725;47.912;7.356;2022-10-19T20:29:00;6.46;4.85;
61804;PMS7003;47725;47.912;7.356;2022-10-19T20:32:59;4.04;4.04;
61804;PMS7003;47725;47.912;7.356;2022-10-19T20:36:59;4.04;4.04;
61804;PMS7003;47725;47.912;7.356;2022-10-19T20:41:03;4.83;4.03;
61804;PMS7003;47725;47.912;7.356;2022-10-19T20:44:59;4.83;4.03;
61804;PMS7003;47725;47.912;7.356;2022-10-19T20:49:00;4.83;4.03;
61804;PMS7003;47725;47.912;7.356;2022-10-19T20:52:59;4.01;4.01;
61804;PMS7003;47725;47.912;7.356;2022-10-19T20:56:59;4.01;4.01;
61804;PMS7003;47725;47.912;7.356;2022-10-19T21:01:03;5.60;3.20;
61804;PMS7003;47725;47.912;7.356;2022-10-19T21:04:59;5.60;3.20;
61804;PMS7003;47725;47.912;7.356;2022-10-19T21:08:59;5.60;3.20;
61804;PMS7003;47725;47.912;7.356;2022-10-19T21:12:59;3.98;3.98;
61804;PMS7003;47725;47.912;7.356;2022-10-19T21:16:59;3.98;3.98;
61804;PMS7003;47725;47.912;7.356;2022-10-19T21:20:59;7.15;3.97;
61804;PMS7003;47725;47.912;7.356;2022-10-19T21:24:59;7.15;3.97;
61804;PMS7003;47725;47.912;7.356;2022-10-19T21:28:59;7.15;3.97;
61804;PMS7003;47725;47.912;7.356;2022-10-19T21:32:59;7.13;4.76;
61804;PMS7003;47725;47.912;7.356;2022-10-19T21:36:59;7.13;4.76;
61804;PMS7003;47725;47.912;7.356;2022-10-19T21:41:00;7.12;4.75;
61804;PMS7003;47725;47.912;7.356;2022-10-19T21:44:59;7.12;4.75;
61804;PMS7003;47725;47.912;7.356;2022-10-19T21:48:59;7.12;4.75;
61804;PMS7003;47725;47.912;7.356;2022-10-19T21:52:59;7.16;4.77;
61804;PMS7003;47725;47.912;7.356;2022-10-19T21:56:59;7.16;4.77;
61804;PMS7003;47725;47.912;7.356;2022-10-19T22:01:05;4.77;4.77;
61804;PMS7003;47725;47.912;7.356;2022-10-19T22:04:59;4.77;4.77;
61804;PMS7003;47725;47.912;7.356;2022-10-19T22:08:59;4.77;4.77;
61804;PMS7003;47725;47.912;7.356;2022-10-19T22:12:59;4.76;4.76;
61804;PMS7003;47725;47.912;7.356;2022-10-19T22:16:59;4.76;4.76;
61804;PMS7003;47725;47.912;7.356;2022-10-19T22:21:03;4.77;3.97;
61804;PMS7003;47725;47.912;7.356;2022-10-19T22:24:59;4.77;3.97;
61804;PMS7003;47725;47.912;7.356;2022-10-19T22:28:59;4.77;3.97;
61804;PMS7003;47725;47.912;7.356;2022-10-19T22:32:59;8.74;5.56;
61804;PMS7003;47725;47.912;7.356;2022-10-19T22:36:59;8.74;5.56;
61804;PMS7003;47725;47.912;7.356;2022-10-19T22:44:59;4.79;4.79;
61804;PMS7003;47725;47.912;7.356;2022-10-19T22:48:59;4.79;4.79;
61804;PMS7003;47725;47.912;7.356;2022-10-19T22:52:59;4.78;3.19;
61804;PMS7003;47725;47.912;7.356;2022-10-19T22:56:59;4.78;3.19;
61804;PMS7003;47725;47.912;7.356;2022-10-19T23:01:03;7.95;5.57;
61804;PMS7003;47725;47.912;7.356;2022-10-19T23:04:59;7.95;5.57;
61804;PMS7003;47725;47.912;7.356;2022-10-19T23:08:59;7.95;5.57;
61804;PMS7003;47725;47.912;7.356;2022-10-19T23:12:59;5.60;4.80;
61804;PMS7003;47725;47.912;7.356;2022-10-19T23:16:59;5.60;4.80;
61804;PMS7003;47725;47.912;7.356;2022-10-19T23:21:00;6.37;4.78;
61804;PMS7003;47725;47.912;7.356;2022-10-19T23:24:59;6.37;4.78;
61804;PMS7003;47725;47.912;7.356;2022-10-19T23:28:59;6.37;4.78;
61804;PMS7003;47725;47.912;7.356;2022-10-19T23:32:59;5.53;3.95;
61804;PMS7003;47725;47.912;7.356;2022-10-19T23:36:59;5.53;3.95;
61804;PMS7003;47725;47.912;7.356;2022-10-19T23:40:59;3.94;3.15;
61804;PMS7003;47725;47.912;7.356;2022-10-19T23:44:59;3.94;3.15;
61804;PMS7003;47725;47.912;7.356;2022-10-19T23:48:59;3.94;3.15;
61804;PMS7003;47725;47.912;7.356;2022-10-19T23:52:59;6.31;4.73;
61804;PMS7003;47725;47.912;7.356;2022-10-19T23:56:59;6.31;4.73;
